createdAt,value
2018-10-03T00:00:26.890Z,5.80
2018-10-03T00:02:57.126Z,5.93
2018-10-03T00:05:27.338Z,4.00
2018-10-03T00:07:57.610Z,5.17
2018-10-03T00:10:27.829Z,4.60
2018-10-03T00:12:58.084Z,4.17
2018-10-03T00:15:28.317Z,3.67
2018-10-03T00:17:58.571Z,3.30
2018-10-03T00:20:28.826Z,4.07
2018-10-03T00:22:59.138Z,5.07
2018-10-03T00:25:29.376Z,3.57
2018-10-03T00:27:59.593Z,3.63
2018-10-03T00:30:29.819Z,3.80
2018-10-03T00:33:00.073Z,3.60
2018-10-03T00:35:30.300Z,3.33
2018-10-03T00:38:00.538Z,5.00
2018-10-03T00:40:30.774Z,4.67
2018-10-03T00:43:01.013Z,3.33
2018-10-03T00:45:31.255Z,4.27
2018-10-03T00:48:01.568Z,3.93
2018-10-03T00:50:31.963Z,4.63
2018-10-03T00:53:02.260Z,6.20
2018-10-03T00:55:32.483Z,4.57
2018-10-03T00:58:02.909Z,4.90
2018-10-03T01:00:33.136Z,4.57
2018-10-03T01:03:03.398Z,2.90
2018-10-03T01:05:33.626Z,3.37
2018-10-03T01:08:03.879Z,4.60
2018-10-03T01:10:34.102Z,4.33
2018-10-03T01:13:04.345Z,3.83
2018-10-03T01:15:34.574Z,5.63
2018-10-03T01:18:04.837Z,4.90
2018-10-03T01:20:35.080Z,4.87
2018-10-03T01:23:05.330Z,4.77
2018-10-03T01:25:35.563Z,3.80
2018-10-03T01:28:05.838Z,7.77
2018-10-03T01:30:36.109Z,4.90
2018-10-03T01:33:06.349Z,4.43
2018-10-03T01:35:36.571Z,4.57
2018-10-03T01:38:06.825Z,5.13
2018-10-03T01:40:37.046Z,4.33
2018-10-03T01:43:07.379Z,6.77
2018-10-03T01:45:37.685Z,5.43
2018-10-03T01:48:07.938Z,7.40
2018-10-03T01:50:38.165Z,5.83
2018-10-03T01:53:08.447Z,3.93
2018-10-03T01:55:38.669Z,5.40
2018-10-03T01:58:08.970Z,5.53
2018-10-03T02:00:39.190Z,3.93
2018-10-03T02:03:09.510Z,6.23
2018-10-03T02:05:39.810Z,5.53
2018-10-03T02:08:16.814Z,5.67
2018-10-03T02:10:47.074Z,4.47
2018-10-03T02:13:17.318Z,5.43
2018-10-03T02:15:47.540Z,5.27
2018-10-03T02:18:17.789Z,6.60
2018-10-03T02:20:48.100Z,3.63
2018-10-03T02:23:18.402Z,3.90
2018-10-03T02:25:48.678Z,4.53
2018-10-03T02:28:18.975Z,3.60
2018-10-03T02:30:49.253Z,5.93
2018-10-03T02:33:19.531Z,4.63
2018-10-03T02:35:49.808Z,4.20
2018-10-03T02:38:20.216Z,5.00
2018-10-03T02:40:50.594Z,5.40
2018-10-03T02:43:20.926Z,3.50
2018-10-03T02:45:51.250Z,3.80
2018-10-03T02:48:21.563Z,5.43
2018-10-03T02:50:51.872Z,4.33
2018-10-03T02:53:22.184Z,5.43
2018-10-03T02:55:52.474Z,3.70
2018-10-03T02:58:22.785Z,5.30
2018-10-03T03:00:53.060Z,4.70
2018-10-03T03:03:23.367Z,3.73
2018-10-03T03:05:53.696Z,5.00
2018-10-03T03:08:23.997Z,5.70
2018-10-03T03:10:54.277Z,4.37
2018-10-03T03:13:24.579Z,5.63
2018-10-03T03:15:54.857Z,4.90
2018-10-03T03:18:25.166Z,4.37
2018-10-03T03:20:55.411Z,5.27
2018-10-03T03:23:25.650Z,4.40
2018-10-03T03:25:55.890Z,7.40
2018-10-03T03:28:26.114Z,3.50
2018-10-03T03:30:56.342Z,8.93
2018-10-03T03:33:26.588Z,5.57
2018-10-03T03:35:56.802Z,3.23
2018-10-03T03:38:27.044Z,3.23
2018-10-03T03:40:57.278Z,4.00
2018-10-03T03:43:27.531Z,3.10
2018-10-03T03:45:57.780Z,5.67
2018-10-03T03:48:27.986Z,5.37
2018-10-03T03:50:58.222Z,4.63
2018-10-03T03:53:28.435Z,4.10
2018-10-03T03:55:58.661Z,4.37
2018-10-03T03:58:28.873Z,5.67
2018-10-03T04:00:59.118Z,3.73
2018-10-03T04:03:29.375Z,3.13
2018-10-03T04:05:59.589Z,4.10
2018-10-03T04:08:29.818Z,5.03
2018-10-03T04:11:00.081Z,3.03
2018-10-03T04:13:30.326Z,3.50
2018-10-03T04:16:00.663Z,3.73
2018-10-03T04:18:30.901Z,4.20
2018-10-03T04:21:01.227Z,4.07
2018-10-03T04:23:31.503Z,2.90
2018-10-03T04:26:01.930Z,6.00
2018-10-03T04:28:32.231Z,3.83
2018-10-03T04:31:02.530Z,4.57
2018-10-03T04:33:32.917Z,3.43
2018-10-03T04:36:03.190Z,5.50
2018-10-03T04:38:33.506Z,3.03
2018-10-03T04:41:03.799Z,4.37
2018-10-03T04:43:34.110Z,3.47
2018-10-03T04:46:04.389Z,3.40
2018-10-03T04:48:34.702Z,3.57
2018-10-03T04:51:04.994Z,4.90
2018-10-03T04:53:35.319Z,3.33
2018-10-03T04:56:05.678Z,3.43
2018-10-03T04:58:35.989Z,3.93
2018-10-03T05:01:06.694Z,2.40
2018-10-03T05:03:37.215Z,2.80
2018-10-03T05:06:08.258Z,3.00
2018-10-03T05:08:38.691Z,2.83
2018-10-03T05:11:09.037Z,3.80
2018-10-03T05:13:39.323Z,5.40
2018-10-03T05:16:09.629Z,3.40
2018-10-03T05:18:39.932Z,3.97
2018-10-03T05:21:10.238Z,3.07
2018-10-03T05:23:40.594Z,2.90
2018-10-03T05:26:10.982Z,3.27
2018-10-03T05:28:41.287Z,2.97
2018-10-03T05:31:11.671Z,2.70
2018-10-03T05:33:42.166Z,3.90
2018-10-03T05:36:12.511Z,3.10
2018-10-03T05:38:42.819Z,3.27
2018-10-03T05:41:13.098Z,2.97
2018-10-03T05:43:43.411Z,4.50
2018-10-03T05:46:13.706Z,3.00
2018-10-03T05:48:44.071Z,4.47
2018-10-03T05:51:14.315Z,2.70
2018-10-03T05:53:44.699Z,4.50
2018-10-03T05:56:15.238Z,3.13
2018-10-03T05:58:45.544Z,2.80
2018-10-03T06:01:15.858Z,2.97
2018-10-03T06:03:46.250Z,3.87
2018-10-03T06:06:16.552Z,3.27
2018-10-03T06:08:46.891Z,2.70
2018-10-03T06:11:17.187Z,3.30
2018-10-03T06:13:47.526Z,3.03
2018-10-03T06:16:17.889Z,3.67
2018-10-03T06:18:48.359Z,2.87
2018-10-03T06:21:18.543Z,3.50
2018-10-03T06:23:48.870Z,3.87
2018-10-03T06:26:19.207Z,6.37
2018-10-03T06:28:49.557Z,3.33
2018-10-03T06:31:19.867Z,3.57
2018-10-03T06:33:50.103Z,2.83
2018-10-03T06:36:20.359Z,2.77
2018-10-03T06:38:50.611Z,4.07
2018-10-03T06:41:20.989Z,3.23
2018-10-03T06:43:51.330Z,2.73
2018-10-03T06:46:21.573Z,3.23
2018-10-03T06:48:51.806Z,3.27
2018-10-03T06:51:22.051Z,4.17
2018-10-03T06:53:52.270Z,3.10
2018-10-03T06:56:22.759Z,5.13
2018-10-03T06:58:53.017Z,2.73
2018-10-03T07:01:23.253Z,2.63
2018-10-03T07:03:53.482Z,2.87
2018-10-03T07:06:23.747Z,5.57
2018-10-03T07:08:54.041Z,2.77
2018-10-03T07:11:24.337Z,2.47
2018-10-03T07:13:54.650Z,3.83
2018-10-03T07:16:24.903Z,3.07
2018-10-03T07:18:55.137Z,2.97
2018-10-03T07:21:25.602Z,2.50
2018-10-03T07:23:55.847Z,2.77
2018-10-03T07:26:26.087Z,3.57
2018-10-03T07:28:56.330Z,2.80
2018-10-03T07:31:26.578Z,2.43
2018-10-03T07:33:56.807Z,3.20
2018-10-03T07:36:27.058Z,2.97
2018-10-03T07:38:57.290Z,3.97
2018-10-03T07:41:27.509Z,2.90
2018-10-03T07:43:57.801Z,3.27
2018-10-03T07:46:27.982Z,2.90
2018-10-03T07:48:58.223Z,2.50
2018-10-03T07:51:28.543Z,4.07
2018-10-03T07:53:58.759Z,3.13
2018-10-03T07:56:29.002Z,3.13
2018-10-03T07:58:59.279Z,4.33
2018-10-03T08:01:29.506Z,3.43
2018-10-03T08:03:59.710Z,5.00
2018-10-03T08:06:29.965Z,6.07
2018-10-03T08:09:00.213Z,11.67
2018-10-03T08:11:30.481Z,5.17
2018-10-03T08:14:00.683Z,4.60
2018-10-03T08:16:30.945Z,4.30
2018-10-03T08:19:01.178Z,4.77
2018-10-03T08:21:31.486Z,5.70
2018-10-03T08:24:01.713Z,10.27
2018-10-03T08:26:31.969Z,7.37
2018-10-03T08:29:02.215Z,5.37
2018-10-03T08:31:32.488Z,4.37
2018-10-03T08:34:02.733Z,4.33
2018-10-03T08:36:32.986Z,5.77
2018-10-03T08:39:03.338Z,4.73
2018-10-03T08:41:33.598Z,5.13
2018-10-03T08:44:03.836Z,4.50
2018-10-03T08:46:34.133Z,4.57
2018-10-03T08:49:04.377Z,6.27
2018-10-03T08:51:34.721Z,9.30
2018-10-03T08:54:04.986Z,7.07
2018-10-03T08:56:35.356Z,4.60
2018-10-03T08:59:05.590Z,5.03
2018-10-03T09:01:35.814Z,4.63
2018-10-03T09:04:06.082Z,4.50
2018-10-03T09:06:36.426Z,5.00
2018-10-03T09:09:09.453Z,5.10
2018-10-03T09:11:39.828Z,5.23
2018-10-03T09:14:10.457Z,7.33
2018-10-03T09:16:40.685Z,4.77
2018-10-03T09:19:10.968Z,4.63
2018-10-03T09:21:41.293Z,4.90
2018-10-03T09:24:11.483Z,5.33
2018-10-03T09:26:41.740Z,3.93
2018-10-03T09:29:11.988Z,4.30
2018-10-03T09:31:42.273Z,6.23
2018-10-03T09:34:12.487Z,5.90
2018-10-03T09:36:43.347Z,5.07
2018-10-03T09:39:13.606Z,5.17
2018-10-03T09:41:44.162Z,4.63
2018-10-03T09:44:14.385Z,4.47
2018-10-03T09:46:44.642Z,5.77
2018-10-03T09:49:14.918Z,4.70
2018-10-03T09:51:45.156Z,6.63
2018-10-03T09:54:15.395Z,4.63
2018-10-03T09:56:46.031Z,4.43
2018-10-03T09:59:16.597Z,6.57
2018-10-03T10:01:46.882Z,4.63
2018-10-03T10:04:17.114Z,5.40
2018-10-03T10:06:47.785Z,4.53
2018-10-03T10:09:18.031Z,6.33
2018-10-03T10:11:48.331Z,5.13
2018-10-03T10:14:18.547Z,5.83
2018-10-03T10:16:48.808Z,6.17
2018-10-03T10:19:20.198Z,4.83
2018-10-03T10:21:50.535Z,4.83
2018-10-03T10:24:20.758Z,5.37
2018-10-03T10:26:51.010Z,3.83
2018-10-03T10:29:21.263Z,4.37
2018-10-03T10:31:51.695Z,3.77
2018-10-03T10:34:21.929Z,5.27
2018-10-03T10:36:52.215Z,6.00
2018-10-03T10:39:22.439Z,5.73
2018-10-03T10:41:52.707Z,5.83
2018-10-03T10:44:23.166Z,9.90
2018-10-03T10:46:53.430Z,10.07
2018-10-03T10:49:23.673Z,6.63
2018-10-03T10:51:54.001Z,6.13
2018-10-03T10:54:25.788Z,5.60
2018-10-03T10:56:56.724Z,5.27
2018-10-03T10:59:27.111Z,7.30
2018-10-03T11:01:57.762Z,11.23
2018-10-03T11:04:28.170Z,6.70
2018-10-03T11:06:58.530Z,4.67
2018-10-03T11:09:30.042Z,4.67
2018-10-03T11:12:00.738Z,6.00
2018-10-03T11:14:31.161Z,8.77
2018-10-03T11:17:01.552Z,7.80
2018-10-03T11:19:31.688Z,8.77
2018-10-03T11:22:02.153Z,7.00
2018-10-03T11:24:32.659Z,10.10
2018-10-03T11:27:03.686Z,4.97
2018-10-03T11:29:34.359Z,7.53
2018-10-03T11:32:04.736Z,8.10
2018-10-03T11:34:34.987Z,8.23
2018-10-03T11:37:05.893Z,5.33
2018-10-03T11:39:36.226Z,6.33
2018-10-03T11:42:06.638Z,6.57
2018-10-03T11:44:36.925Z,4.40
2018-10-03T11:47:07.607Z,6.43
2018-10-03T11:49:39.407Z,4.57
2018-10-03T11:52:09.891Z,6.20
2018-10-03T11:54:40.198Z,5.30
2018-10-03T11:57:10.583Z,8.23
2018-10-03T11:59:40.872Z,8.40
2018-10-03T12:02:12.413Z,8.00
2018-10-03T12:04:42.756Z,6.90
2018-10-03T12:07:13.091Z,7.07
2018-10-03T12:09:43.416Z,6.57
2018-10-03T12:12:13.730Z,7.17
2018-10-03T12:14:44.492Z,8.43
2018-10-03T12:17:15.392Z,6.47
2018-10-03T12:19:45.921Z,4.50
2018-10-03T12:22:16.233Z,6.47
2018-10-03T12:24:46.539Z,4.90
2018-10-03T12:27:16.825Z,4.77
2018-10-03T12:29:47.159Z,7.60
2018-10-03T12:32:18.151Z,8.60
2018-10-03T12:34:48.434Z,7.40
2018-10-03T12:37:18.729Z,6.60
2018-10-03T12:39:49.035Z,6.17
2018-10-03T12:42:19.331Z,6.10
2018-10-03T12:44:49.586Z,8.23
2018-10-03T12:47:19.902Z,7.23
2018-10-03T12:49:50.183Z,4.80
2018-10-03T12:52:20.506Z,7.10
2018-10-03T12:54:50.923Z,9.93
2018-10-03T12:57:21.310Z,5.00
2018-10-03T12:59:51.635Z,10.33
2018-10-03T13:02:21.938Z,5.67
2018-10-03T13:04:52.222Z,6.37
2018-10-03T13:07:22.515Z,8.90
2018-10-03T13:09:52.882Z,6.03
2018-10-03T13:12:23.202Z,6.87
2018-10-03T13:14:53.583Z,5.30
2018-10-03T13:17:23.875Z,7.93
2018-10-03T13:19:54.168Z,7.47
2018-10-03T13:22:24.648Z,4.93
2018-10-03T13:24:54.915Z,7.23
2018-10-03T13:27:25.235Z,9.40
2018-10-03T13:29:55.535Z,9.77
2018-10-03T13:32:25.827Z,6.57
2018-10-03T13:34:56.139Z,6.63
2018-10-03T13:37:26.446Z,7.23
2018-10-03T13:39:56.723Z,5.77
2018-10-03T13:42:27.125Z,11.27
2018-10-03T13:44:57.410Z,8.20
2018-10-03T13:47:27.798Z,6.53
2018-10-03T13:49:58.084Z,9.00
2018-10-03T13:52:28.482Z,7.40
2018-10-03T13:54:58.722Z,7.90
2018-10-03T13:57:29.029Z,9.93
2018-10-03T13:59:59.313Z,11.43
2018-10-03T14:02:29.582Z,9.00
2018-10-03T14:04:59.930Z,9.30
2018-10-03T14:07:30.266Z,9.13
2018-10-03T14:10:00.636Z,9.87
2018-10-03T14:12:30.995Z,12.10
2018-10-03T14:15:01.350Z,7.47
2018-10-03T14:17:31.646Z,6.80
2018-10-03T14:20:02.187Z,11.63
2018-10-03T14:22:32.497Z,6.70
2018-10-03T14:25:02.788Z,9.83
2018-10-03T14:27:33.041Z,6.27
2018-10-03T14:30:03.280Z,8.63
2018-10-03T14:32:33.535Z,10.83
2018-10-03T14:35:03.765Z,10.63
2018-10-03T14:37:34.018Z,9.13
2018-10-03T14:40:04.284Z,9.00
2018-10-03T14:42:34.528Z,10.37
2018-10-03T14:45:04.786Z,15.13
2018-10-03T14:47:35.083Z,8.40
2018-10-03T14:50:05.670Z,8.50
2018-10-03T14:52:36.360Z,10.77
2018-10-03T14:55:06.823Z,9.00
2018-10-03T14:57:37.075Z,9.47
2018-10-03T15:00:08.454Z,6.63
2018-10-03T15:02:38.702Z,11.20
2018-10-03T15:05:09.142Z,8.00
2018-10-03T15:07:39.369Z,14.17
2018-10-03T15:10:09.807Z,6.60
2018-10-03T15:12:40.043Z,12.80
2018-10-03T15:15:10.405Z,8.20
2018-10-03T15:17:40.614Z,9.83
2018-10-03T15:20:11.190Z,8.20
2018-10-03T15:22:41.409Z,7.57
2018-10-03T15:25:11.750Z,7.23
2018-10-03T15:27:42.776Z,6.97
2018-10-03T15:30:13.042Z,8.03
2018-10-03T15:32:43.887Z,10.07
2018-10-03T15:35:14.591Z,9.53
2018-10-03T15:37:44.866Z,6.93
2018-10-03T15:40:16.386Z,13.33
2018-10-03T15:42:48.164Z,9.83
2018-10-03T15:45:19.927Z,8.53
2018-10-03T15:47:50.173Z,9.37
2018-10-03T15:50:20.438Z,10.47
2018-10-03T15:52:50.661Z,6.63
2018-10-03T15:55:20.957Z,12.60
2018-10-03T15:57:51.184Z,7.80
2018-10-03T16:00:21.463Z,8.60
2018-10-03T16:02:51.674Z,11.67
2018-10-03T16:05:21.943Z,11.07
2018-10-03T16:07:52.166Z,12.47
2018-10-03T16:10:22.426Z,8.57
2018-10-03T16:12:52.646Z,10.27
2018-10-03T16:15:22.894Z,9.67
2018-10-03T16:17:53.719Z,7.70
2018-10-03T16:20:24.026Z,10.77
2018-10-03T16:22:54.299Z,10.27
2018-10-03T16:25:24.634Z,10.43
2018-10-03T16:27:54.916Z,9.90
2018-10-03T16:30:25.235Z,11.03
2018-10-03T16:32:55.674Z,10.77
2018-10-03T16:35:25.976Z,9.73
2018-10-03T16:37:56.258Z,11.50
2018-10-03T16:40:26.554Z,9.30
2018-10-03T16:42:56.911Z,9.00
2018-10-03T16:45:27.222Z,8.23
2018-10-03T16:47:57.511Z,11.67
2018-10-03T16:50:27.804Z,8.27
2018-10-03T16:52:58.086Z,14.80
2018-10-03T16:55:28.631Z,12.73
2018-10-03T16:57:58.913Z,9.40
2018-10-03T17:00:29.210Z,8.70
2018-10-03T17:02:59.599Z,10.80
2018-10-03T17:05:29.914Z,10.43
2018-10-03T17:08:00.186Z,9.83
2018-10-03T17:10:30.565Z,9.50
2018-10-03T17:13:00.879Z,7.70
2018-10-03T17:15:31.179Z,8.57
2018-10-03T17:18:01.567Z,8.20
2018-10-03T17:20:31.937Z,10.93
2018-10-03T17:23:02.497Z,9.20
2018-10-03T17:25:33.518Z,15.03
2018-10-03T17:28:03.943Z,10.90
2018-10-03T17:30:34.261Z,11.53
2018-10-03T17:33:04.542Z,8.40
2018-10-03T17:35:34.851Z,8.60
2018-10-03T17:38:05.184Z,9.67
2018-10-03T17:40:35.438Z,8.67
2018-10-03T17:43:05.900Z,11.97
2018-10-03T17:45:36.450Z,7.90
2018-10-03T17:48:06.774Z,9.73
2018-10-03T17:50:37.627Z,8.47
2018-10-03T17:53:08.117Z,11.33
2018-10-03T17:55:38.420Z,8.40
2018-10-03T17:58:08.715Z,6.37
2018-10-03T18:00:39.529Z,9.17
2018-10-03T18:03:10.144Z,8.37
2018-10-03T18:05:40.445Z,7.77
2018-10-03T18:08:10.702Z,10.00
2018-10-03T18:10:41.059Z,13.30
2018-10-03T18:13:11.294Z,10.47
2018-10-03T18:15:41.598Z,11.97
2018-10-03T18:18:11.898Z,17.17
2018-10-03T18:20:42.253Z,14.53
2018-10-03T18:23:12.550Z,14.70
2018-10-03T18:25:43.012Z,15.40
2018-10-03T18:28:14.090Z,13.97
2018-10-03T18:30:44.397Z,13.37
2018-10-03T18:33:14.694Z,12.40
2018-10-03T18:35:45.026Z,15.53
2018-10-03T18:38:15.323Z,18.30
2018-10-03T18:40:45.667Z,19.93
2018-10-03T18:43:15.958Z,21.43
2018-10-03T18:45:46.261Z,26.57
2018-10-03T18:48:16.563Z,37.03
2018-10-03T18:50:47.153Z,36.43
2018-10-03T18:53:17.450Z,20.87
2018-10-03T18:55:47.726Z,10.97
2018-10-03T18:58:18.273Z,15.77
2018-10-03T19:00:48.578Z,17.10
2018-10-03T19:03:18.872Z,19.93
2018-10-03T19:05:49.241Z,18.77
2018-10-03T19:08:19.490Z,19.30
2018-10-03T19:10:49.801Z,28.27
2018-10-03T19:13:20.098Z,32.30
2018-10-03T19:15:50.455Z,22.97
2018-10-03T19:18:20.908Z,22.17
2018-10-03T19:20:51.263Z,18.33
2018-10-03T19:23:21.562Z,15.57
2018-10-03T19:25:51.927Z,29.83
2018-10-03T19:28:22.191Z,16.77
2018-10-03T19:30:52.498Z,17.20
2018-10-03T19:33:22.790Z,14.03
2018-10-03T19:35:53.113Z,14.13
2018-10-03T19:38:23.407Z,16.73
2018-10-03T19:40:53.693Z,15.43
2018-10-03T19:43:23.973Z,11.27
2018-10-03T19:45:54.287Z,12.60
2018-10-03T19:48:24.777Z,14.97
2018-10-03T19:50:55.024Z,12.80
2018-10-03T19:53:30.553Z,14.20
2018-10-03T19:56:01.546Z,12.50
2018-10-03T19:58:32.057Z,11.63
2018-10-03T20:01:02.362Z,13.53
2018-10-03T20:03:32.665Z,12.60
2018-10-03T20:06:02.970Z,11.87
2018-10-03T20:08:33.278Z,11.33
2018-10-03T20:11:03.581Z,15.70
2018-10-03T20:13:33.888Z,18.97
2018-10-03T20:16:04.181Z,13.43
2018-10-03T20:18:34.501Z,12.70
2018-10-03T20:21:04.848Z,16.43
2018-10-03T20:23:35.121Z,14.73
2018-10-03T20:26:05.417Z,16.77
2018-10-03T20:28:35.739Z,14.23
2018-10-03T20:31:06.033Z,12.27
2018-10-03T20:33:36.374Z,11.70
2018-10-03T20:36:06.646Z,11.87
2018-10-03T20:38:36.965Z,11.50
2018-10-03T20:41:07.331Z,8.63
2018-10-03T20:43:37.639Z,14.10
2018-10-03T20:46:07.965Z,11.77
2018-10-03T20:48:38.275Z,11.67
2018-10-03T20:51:08.633Z,13.23
2018-10-03T20:53:38.946Z,10.73
2018-10-03T20:56:09.222Z,10.77
2018-10-03T20:58:39.499Z,10.40
2018-10-03T21:01:09.806Z,10.80
2018-10-03T21:03:40.125Z,7.33
2018-10-03T21:06:10.394Z,12.70
2018-10-03T21:08:40.723Z,11.07
2018-10-03T21:11:10.981Z,9.93
2018-10-03T21:13:41.283Z,13.77
2018-10-03T21:16:11.636Z,10.87
2018-10-03T21:18:41.942Z,11.77
2018-10-03T21:21:12.250Z,7.57
2018-10-03T21:23:42.493Z,12.00
2018-10-03T21:26:12.726Z,10.37
2018-10-03T21:28:42.979Z,10.00
2018-10-03T21:31:13.210Z,7.30
2018-10-03T21:33:43.448Z,10.47
2018-10-03T21:36:13.707Z,9.03
2018-10-03T21:38:43.968Z,9.57
2018-10-03T21:41:14.190Z,13.30
2018-10-03T21:43:44.480Z,14.00
2018-10-03T21:46:14.671Z,8.47
2018-10-03T21:48:44.906Z,8.60
2018-10-03T21:51:15.210Z,9.00
2018-10-03T21:53:45.439Z,13.60
2018-10-03T21:56:15.674Z,11.13
2018-10-03T21:58:45.941Z,11.80
2018-10-03T22:01:16.176Z,10.67
2018-10-03T22:03:46.435Z,7.97
2018-10-03T22:06:16.669Z,8.17
2018-10-03T22:08:46.908Z,7.33
2018-10-03T22:11:17.121Z,10.50
2018-10-03T22:13:47.363Z,9.13
2018-10-03T22:16:17.578Z,10.37
2018-10-03T22:18:47.841Z,8.23
2018-10-03T22:21:18.082Z,13.37
2018-10-03T22:23:48.330Z,9.40
2018-10-03T22:26:18.554Z,12.20
2018-10-03T22:28:48.798Z,11.33
2018-10-03T22:31:19.023Z,12.43
2018-10-03T22:33:49.266Z,9.77
2018-10-03T22:36:19.462Z,10.67
2018-10-03T22:38:49.730Z,9.50
2018-10-03T22:41:19.954Z,11.20
2018-10-03T22:43:50.206Z,13.27
2018-10-03T22:46:20.430Z,9.63
2018-10-03T22:48:50.679Z,10.13
2018-10-03T22:51:20.910Z,10.30
2018-10-03T22:53:51.153Z,10.47
2018-10-03T22:56:21.378Z,12.47
2018-10-03T22:58:51.639Z,10.17
2018-10-03T23:01:21.866Z,12.03
2018-10-03T23:03:52.240Z,8.53
2018-10-03T23:06:22.466Z,8.67
2018-10-03T23:08:52.737Z,9.90
2018-10-03T23:11:22.983Z,8.97
2018-10-03T23:13:53.305Z,9.70
2018-10-03T23:16:23.517Z,8.93
2018-10-03T23:18:53.743Z,8.43
2018-10-03T23:21:24.061Z,10.10
2018-10-03T23:23:54.363Z,9.87
2018-10-03T23:26:24.635Z,8.40
2018-10-03T23:28:54.926Z,9.80
2018-10-03T23:31:25.230Z,10.83
2018-10-03T23:33:55.514Z,7.73
2018-10-03T23:36:25.821Z,13.03
2018-10-03T23:38:56.102Z,7.10
2018-10-03T23:41:26.407Z,10.03
2018-10-03T23:43:56.695Z,8.53
2018-10-03T23:46:27.014Z,10.17
2018-10-03T23:48:57.311Z,9.07
2018-10-03T23:51:27.666Z,9.60
2018-10-03T23:53:57.955Z,12.23
2018-10-03T23:56:28.366Z,7.13
2018-10-03T23:58:58.646Z,8.20
